sensor_id;sensor_type;location;lat;lon;timestamp;temperature;humidity
44305;DHT22;30019;50.576;8.568;2022-09-09T00:02:10;15.50;99.90
44305;DHT22;30019;50.576;8.568;2022-09-09T00:04:41;15.50;99.90
44305;DHT22;30019;50.576;8.568;2022-09-09T00:09:48;15.40;99.90
44305;DHT22;30019;50.576;8.568;2022-09-09T00:15:05;15.30;99.90
44305;DHT22;30019;50.576;8.568;2022-09-09T00:17:39;15.30;99.90
44305;DHT22;30019;50.576;8.568;2022-09-09T00:20:21;15.30;99.90
44305;DHT22;30019;50.576;8.568;2022-09-09T00:23:09;15.30;99.90
44305;DHT22;30019;50.576;8.568;2022-09-09T00:28:29;15.20;99.90
44305;DHT22;30019;50.576;8.568;2022-09-09T00:31:04;15.10;99.90
44305;DHT22;30019;50.576;8.568;2022-09-09T00:33:34;15.00;99.90
44305;DHT22;30019;50.576;8.568;2022-09-09T00:36:01;15.00;99.90
44305;DHT22;30019;50.576;8.568;2022-09-09T00:38:31;15.00;99.90
44305;DHT22;30019;50.576;8.568;2022-09-09T00:41:22;15.00;99.90
44305;DHT22;30019;50.576;8.568;2022-09-09T00:47:07;14.90;99.90
44305;DHT22;30019;50.576;8.568;2022-09-09T00:58:07;14.80;99.90
44305;DHT22;30019;50.576;8.568;2022-09-09T01:00:54;14.90;99.90
44305;DHT22;30019;50.576;8.568;2022-09-09T01:03:43;14.80;99.90
44305;DHT22;30019;50.576;8.568;2022-09-09T01:06:33;14.80;99.90
44305;DHT22;30019;50.576;8.568;2022-09-09T01:14:49;14.70;99.90
44305;DHT22;30019;50.576;8.568;2022-09-09T01:17:27;14.70;99.90
44305;DHT22;30019;50.576;8.568;2022-09-09T01:22:59;14.70;99.90
44305;DHT22;30019;50.576;8.568;2022-09-09T01:28:11;14.60;99.90
44305;DHT22;30019;50.576;8.568;2022-09-09T01:30:40;14.50;99.90
44305;DHT22;30019;50.576;8.568;2022-09-09T01:33:16;14.50;99.90
44305;DHT22;30019;50.576;8.568;2022-09-09T01:38:12;14.70;99.90
44305;DHT22;30019;50.576;8.568;2022-09-09T01:40:38;14.80;99.90
44305;DHT22;30019;50.576;8.568;2022-09-09T01:43:04;14.80;99.90
44305;DHT22;30019;50.576;8.568;2022-09-09T01:45:30;14.80;99.90
44305;DHT22;30019;50.576;8.568;2022-09-09T01:47:56;14.80;99.90
44305;DHT22;30019;50.576;8.568;2022-09-09T01:50:22;14.80;99.90
44305;DHT22;30019;50.576;8.568;2022-09-09T01:52:52;14.80;99.90
44305;DHT22;30019;50.576;8.568;2022-09-09T01:55:31;14.70;99.90
44305;DHT22;30019;50.576;8.568;2022-09-09T02:03:32;14.70;99.90
44305;DHT22;30019;50.576;8.568;2022-09-09T02:08:49;14.60;99.90
44305;DHT22;30019;50.576;8.568;2022-09-09T02:11:19;14.60;99.90
44305;DHT22;30019;50.576;8.568;2022-09-09T02:13:48;14.60;99.90
44305;DHT22;30019;50.576;8.568;2022-09-09T02:19:10;14.60;99.90
44305;DHT22;30019;50.576;8.568;2022-09-09T02:21:42;14.70;99.90
44305;DHT22;30019;50.576;8.568;2022-09-09T02:24:11;14.70;99.90
44305;DHT22;30019;50.576;8.568;2022-09-09T02:26:40;14.70;99.90
44305;DHT22;30019;50.576;8.568;2022-09-09T02:29:12;14.60;99.90
44305;DHT22;30019;50.576;8.568;2022-09-09T02:31:41;14.60;99.90
44305;DHT22;30019;50.576;8.568;2022-09-09T02:34:09;14.60;99.90
44305;DHT22;30019;50.576;8.568;2022-09-09T02:36:37;14.60;99.90
44305;DHT22;30019;50.576;8.568;2022-09-09T02:39:06;14.70;99.90
44305;DHT22;30019;50.576;8.568;2022-09-09T02:41:35;14.60;99.90
44305;DHT22;30019;50.576;8.568;2022-09-09T02:44:01;14.60;99.90
44305;DHT22;30019;50.576;8.568;2022-09-09T02:49:27;14.60;99.90
44305;DHT22;30019;50.576;8.568;2022-09-09T02:52:08;14.70;99.90
44305;DHT22;30019;50.576;8.568;2022-09-09T02:54:43;14.50;99.90
44305;DHT22;30019;50.576;8.568;2022-09-09T02:57:27;14.50;99.90
44305;DHT22;30019;50.576;8.568;2022-09-09T02:59:53;14.50;99.90
44305;DHT22;30019;50.576;8.568;2022-09-09T03:02:22;14.60;99.90
44305;DHT22;30019;50.576;8.568;2022-09-09T03:04:48;14.60;99.90
44305;DHT22;30019;50.576;8.568;2022-09-09T03:07:17;14.60;99.90
44305;DHT22;30019;50.576;8.568;2022-09-09T03:09:44;14.60;99.90
44305;DHT22;30019;50.576;8.568;2022-09-09T03:12:10;14.60;99.90
44305;DHT22;30019;50.576;8.568;2022-09-09T03:14:37;14.60;99.90
44305;DHT22;30019;50.576;8.568;2022-09-09T03:17:04;14.60;99.90
44305;DHT22;30019;50.576;8.568;2022-09-09T03:19:30;14.60;99.90
44305;DHT22;30019;50.576;8.568;2022-09-09T03:21:56;14.50;99.90
44305;DHT22;30019;50.576;8.568;2022-09-09T03:24:21;14.50;99.90
44305;DHT22;30019;50.576;8.568;2022-09-09T03:26:48;14.50;99.90
44305;DHT22;30019;50.576;8.568;2022-09-09T03:29:13;14.40;99.90
44305;DHT22;30019;50.576;8.568;2022-09-09T03:31:40;14.40;99.90
44305;DHT22;30019;50.576;8.568;2022-09-09T03:34:06;14.40;99.90
44305;DHT22;30019;50.576;8.568;2022-09-09T03:36:31;14.40;99.90
44305;DHT22;30019;50.576;8.568;2022-09-09T03:38:57;14.30;99.90
44305;DHT22;30019;50.576;8.568;2022-09-09T03:41:23;14.30;99.90
44305;DHT22;30019;50.576;8.568;2022-09-09T03:43:53;14.30;99.90
44305;DHT22;30019;50.576;8.568;2022-09-09T03:46:20;14.30;99.90
44305;DHT22;30019;50.576;8.568;2022-09-09T03:48:46;14.40;99.90
44305;DHT22;30019;50.576;8.568;2022-09-09T03:51:12;14.40;99.90
44305;DHT22;30019;50.576;8.568;2022-09-09T03:53:38;14.50;99.90
44305;DHT22;30019;50.576;8.568;2022-09-09T03:56:04;14.50;99.90
44305;DHT22;30019;50.576;8.568;2022-09-09T03:58:33;14.50;99.90
44305;DHT22;30019;50.576;8.568;2022-09-09T04:01:02;14.50;99.90
44305;DHT22;30019;50.576;8.568;2022-09-09T04:03:28;14.50;99.90
44305;DHT22;30019;50.576;8.568;2022-09-09T04:05:56;14.50;99.90
44305;DHT22;30019;50.576;8.568;2022-09-09T04:08:22;14.50;99.90
44305;DHT22;30019;50.576;8.568;2022-09-09T04:10:51;14.50;99.90
44305;DHT22;30019;50.576;8.568;2022-09-09T04:13:17;14.50;99.90
44305;DHT22;30019;50.576;8.568;2022-09-09T04:15:51;14.50;99.90
44305;DHT22;30019;50.576;8.568;2022-09-09T04:18:17;14.50;99.90
44305;DHT22;30019;50.576;8.568;2022-09-09T04:20:42;14.50;99.90
44305;DHT22;30019;50.576;8.568;2022-09-09T04:23:08;14.50;99.90
44305;DHT22;30019;50.576;8.568;2022-09-09T04:25:34;14.60;99.90
44305;DHT22;30019;50.576;8.568;2022-09-09T04:28:00;14.60;99.90
44305;DHT22;30019;50.576;8.568;2022-09-09T04:30:25;14.50;99.90
44305;DHT22;30019;50.576;8.568;2022-09-09T04:32:52;14.60;99.90
44305;DHT22;30019;50.576;8.568;2022-09-09T04:35:18;14.50;99.90
44305;DHT22;30019;50.576;8.568;2022-09-09T04:37:45;14.50;99.90
44305;DHT22;30019;50.576;8.568;2022-09-09T04:40:11;14.50;99.90
44305;DHT22;30019;50.576;8.568;2022-09-09T04:42:37;14.50;99.90
44305;DHT22;30019;50.576;8.568;2022-09-09T04:45:03;14.40;99.90
44305;DHT22;30019;50.576;8.568;2022-09-09T04:47:28;14.40;99.90
44305;DHT22;30019;50.576;8.568;2022-09-09T04:49:54;14.50;99.90
44305;DHT22;30019;50.576;8.568;2022-09-09T04:52:20;14.40;99.90
44305;DHT22;30019;50.576;8.568;2022-09-09T04:54:46;14.40;99.90
44305;DHT22;30019;50.576;8.568;2022-09-09T04:57:12;14.30;99.90
44305;DHT22;30019;50.576;8.568;2022-09-09T04:59:38;14.30;99.90
44305;DHT22;30019;50.576;8.568;2022-09-09T05:02:05;14.30;99.90
44305;DHT22;30019;50.576;8.568;2022-09-09T05:04:30;14.40;99.90
44305;DHT22;30019;50.576;8.568;2022-09-09T05:06:56;14.40;99.90
44305;DHT22;30019;50.576;8.568;2022-09-09T05:09:22;14.50;99.90
44305;DHT22;30019;50.576;8.568;2022-09-09T05:11:47;14.50;99.90
44305;DHT22;30019;50.576;8.568;2022-09-09T05:14:13;14.50;99.90
44305;DHT22;30019;50.576;8.568;2022-09-09T05:16:40;14.60;99.90
44305;DHT22;30019;50.576;8.568;2022-09-09T05:19:05;14.60;99.90
44305;DHT22;30019;50.576;8.568;2022-09-09T05:21:33;14.60;99.90
44305;DHT22;30019;50.576;8.568;2022-09-09T05:23:59;14.80;99.90
44305;DHT22;30019;50.576;8.568;2022-09-09T05:26:26;14.60;99.90
44305;DHT22;30019;50.576;8.568;2022-09-09T05:28:52;14.70;99.90
44305;DHT22;30019;50.576;8.568;2022-09-09T05:31:18;14.80;99.90
44305;DHT22;30019;50.576;8.568;2022-09-09T05:33:47;14.70;99.90
44305;DHT22;30019;50.576;8.568;2022-09-09T05:36:16;14.70;99.90
44305;DHT22;30019;50.576;8.568;2022-09-09T05:38:43;14.70;99.90
44305;DHT22;30019;50.576;8.568;2022-09-09T05:41:10;14.80;99.90
44305;DHT22;30019;50.576;8.568;2022-09-09T05:43:37;14.90;99.90
44305;DHT22;30019;50.576;8.568;2022-09-09T05:48:32;14.90;99.90
44305;DHT22;30019;50.576;8.568;2022-09-09T05:51:00;14.90;99.90
44305;DHT22;30019;50.576;8.568;2022-09-09T05:53:26;14.80;99.90
44305;DHT22;30019;50.576;8.568;2022-09-09T05:56:05;14.80;99.90
44305;DHT22;30019;50.576;8.568;2022-09-09T05:58:32;14.80;99.90
44305;DHT22;30019;50.576;8.568;2022-09-09T06:01:18;14.80;99.90
44305;DHT22;30019;50.576;8.568;2022-09-09T06:03:45;14.90;99.90
44305;DHT22;30019;50.576;8.568;2022-09-09T06:06:13;15.00;99.90
44305;DHT22;30019;50.576;8.568;2022-09-09T06:08:41;15.00;99.90
44305;DHT22;30019;50.576;8.568;2022-09-09T06:11:12;15.10;99.90
44305;DHT22;30019;50.576;8.568;2022-09-09T06:13:39;15.20;99.90
44305;DHT22;30019;50.576;8.568;2022-09-09T06:16:06;15.10;99.90
44305;DHT22;30019;50.576;8.568;2022-09-09T06:18:33;15.10;99.90
44305;DHT22;30019;50.576;8.568;2022-09-09T06:21:00;15.20;99.90
44305;DHT22;30019;50.576;8.568;2022-09-09T06:23:27;15.30;99.90
44305;DHT22;30019;50.576;8.568;2022-09-09T06:26:04;15.50;99.90
44305;DHT22;30019;50.576;8.568;2022-09-09T06:28:31;15.60;99.90
44305;DHT22;30019;50.576;8.568;2022-09-09T06:31:08;15.60;99.90
44305;DHT22;30019;50.576;8.568;2022-09-09T06:33:39;15.70;99.90
44305;DHT22;30019;50.576;8.568;2022-09-09T06:36:07;15.80;99.90
44305;DHT22;30019;50.576;8.568;2022-09-09T06:38:35;15.90;99.90
44305;DHT22;30019;50.576;8.568;2022-09-09T06:41:01;16.00;99.90
44305;DHT22;30019;50.576;8.568;2022-09-09T06:43:27;16.30;99.90
44305;DHT22;30019;50.576;8.568;2022-09-09T06:46:19;16.50;99.90
44305;DHT22;30019;50.576;8.568;2022-09-09T06:48:47;16.50;99.90
44305;DHT22;30019;50.576;8.568;2022-09-09T06:51:18;16.70;99.90
44305;DHT22;30019;50.576;8.568;2022-09-09T06:53:45;16.80;99.90
44305;DHT22;30019;50.576;8.568;2022-09-09T06:58:40;17.00;99.90
44305;DHT22;30019;50.576;8.568;2022-09-09T07:01:14;17.10;99.90
44305;DHT22;30019;50.576;8.568;2022-09-09T07:03:41;17.40;99.90
44305;DHT22;30019;50.576;8.568;2022-09-09T07:06:09;17.60;99.90
44305;DHT22;30019;50.576;8.568;2022-09-09T07:08:39;17.70;99.90
44305;DHT22;30019;50.576;8.568;2022-09-09T07:11:06;17.80;99.90
44305;DHT22;30019;50.576;8.568;2022-09-09T07:13:32;17.70;99.90
44305;DHT22;30019;50.576;8.568;2022-09-09T07:16:09;17.80;99.90
44305;DHT22;30019;50.576;8.568;2022-09-09T07:18:35;17.90;99.90
44305;DHT22;30019;50.576;8.568;2022-09-09T07:21:02;17.70;99.90
44305;DHT22;30019;50.576;8.568;2022-09-09T07:23:29;17.50;99.90
44305;DHT22;30019;50.576;8.568;2022-09-09T07:25:56;17.50;99.90
44305;DHT22;30019;50.576;8.568;2022-09-09T07:28:21;17.60;99.90
44305;DHT22;30019;50.576;8.568;2022-09-09T07:31:01;17.50;99.90
44305;DHT22;30019;50.576;8.568;2022-09-09T07:33:29;17.60;99.90
44305;DHT22;30019;50.576;8.568;2022-09-09T07:36:10;17.60;99.90
44305;DHT22;30019;50.576;8.568;2022-09-09T07:38:41;17.70;99.90
44305;DHT22;30019;50.576;8.568;2022-09-09T07:41:10;17.70;99.90
44305;DHT22;30019;50.576;8.568;2022-09-09T07:43:39;17.70;99.90
44305;DHT22;30019;50.576;8.568;2022-09-09T07:46:06;17.80;99.90
44305;DHT22;30019;50.576;8.568;2022-09-09T07:48:32;17.90;99.90
44305;DHT22;30019;50.576;8.568;2022-09-09T07:51:09;18.00;99.90
44305;DHT22;30019;50.576;8.568;2022-09-09T07:53:37;18.10;99.90
44305;DHT22;30019;50.576;8.568;2022-09-09T07:56:09;18.20;99.90
44305;DHT22;30019;50.576;8.568;2022-09-09T07:58:36;18.40;99.90
44305;DHT22;30019;50.576;8.568;2022-09-09T08:01:07;18.30;99.90
44305;DHT22;30019;50.576;8.568;2022-09-09T08:03:34;18.30;99.90
44305;DHT22;30019;50.576;8.568;2022-09-09T08:06:02;18.30;99.90
44305;DHT22;30019;50.576;8.568;2022-09-09T08:08:28;18.10;99.90
44305;DHT22;30019;50.576;8.568;2022-09-09T08:11:22;18.10;99.90
44305;DHT22;30019;50.576;8.568;2022-09-09T08:13:48;18.20;99.90
44305;DHT22;30019;50.576;8.568;2022-09-09T08:16:19;18.10;99.90
44305;DHT22;30019;50.576;8.568;2022-09-09T08:18:48;18.10;99.90
44305;DHT22;30019;50.576;8.568;2022-09-09T08:21:17;18.10;99.90
44305;DHT22;30019;50.576;8.568;2022-09-09T08:23:45;18.10;99.90
44305;DHT22;30019;50.576;8.568;2022-09-09T08:26:38;18.30;99.90
44305;DHT22;30019;50.576;8.568;2022-09-09T08:29:06;18.80;99.90
44305;DHT22;30019;50.576;8.568;2022-09-09T08:31:34;19.20;99.90
44305;DHT22;30019;50.576;8.568;2022-09-09T08:34:01;19.20;99.90
44305;DHT22;30019;50.576;8.568;2022-09-09T08:36:30;18.90;99.90
44305;DHT22;30019;50.576;8.568;2022-09-09T08:38:57;18.80;99.90
44305;DHT22;30019;50.576;8.568;2022-09-09T08:45:11;18.70;99.90
44305;DHT22;30019;50.576;8.568;2022-09-09T08:48:16;18.60;99.90
44305;DHT22;30019;50.576;8.568;2022-09-09T08:50:43;18.70;99.90
44305;DHT22;30019;50.576;8.568;2022-09-09T08:53:27;18.90;99.90
44305;DHT22;30019;50.576;8.568;2022-09-09T08:56:01;19.80;99.90
44305;DHT22;30019;50.576;8.568;2022-09-09T08:58:31;21.50;99.90
44305;DHT22;30019;50.576;8.568;2022-09-09T09:01:15;22.00;99.90
44305;DHT22;30019;50.576;8.568;2022-09-09T09:12:27;22.70;97.20
44305;DHT22;30019;50.576;8.568;2022-09-09T09:14:54;22.30;99.00
44305;DHT22;30019;50.576;8.568;2022-09-09T09:17:23;21.90;99.40
44305;DHT22;30019;50.576;8.568;2022-09-09T09:19:50;21.50;98.20
44305;DHT22;30019;50.576;8.568;2022-09-09T09:22:22;21.60;99.00
44305;DHT22;30019;50.576;8.568;2022-09-09T09:27:43;22.40;97.60
44305;DHT22;30019;50.576;8.568;2022-09-09T09:30:19;22.50;96.20
44305;DHT22;30019;50.576;8.568;2022-09-09T09:33:00;22.20;97.30
44305;DHT22;30019;50.576;8.568;2022-09-09T09:35:28;21.90;97.00
44305;DHT22;30019;50.576;8.568;2022-09-09T09:37:53;21.00;97.90
44305;DHT22;30019;50.576;8.568;2022-09-09T09:40:21;20.50;99.50
44305;DHT22;30019;50.576;8.568;2022-09-09T09:42:59;20.60;99.50
44305;DHT22;30019;50.576;8.568;2022-09-09T09:48:05;21.20;97.90
44305;DHT22;30019;50.576;8.568;2022-09-09T09:50:32;21.20;98.40
44305;DHT22;30019;50.576;8.568;2022-09-09T09:53:00;21.40;97.70
44305;DHT22;30019;50.576;8.568;2022-09-09T09:55:28;21.20;97.70
44305;DHT22;30019;50.576;8.568;2022-09-09T09:58:02;21.40;98.30
44305;DHT22;30019;50.576;8.568;2022-09-09T10:00:28;21.40;98.70
44305;DHT22;30019;50.576;8.568;2022-09-09T10:02:54;21.30;98.60
44305;DHT22;30019;50.576;8.568;2022-09-09T10:05:22;21.20;97.70
44305;DHT22;30019;50.576;8.568;2022-09-09T10:08:04;21.20;98.70
44305;DHT22;30019;50.576;8.568;2022-09-09T10:10:47;20.80;98.90
44305;DHT22;30019;50.576;8.568;2022-09-09T10:27:05;20.50;99.90
44305;DHT22;30019;50.576;8.568;2022-09-09T10:29:54;20.60;99.90
44305;DHT22;30019;50.576;8.568;2022-09-09T10:32:35;20.10;99.90
44305;DHT22;30019;50.576;8.568;2022-09-09T10:35:19;19.80;99.90
44305;DHT22;30019;50.576;8.568;2022-09-09T10:38:03;19.40;99.90
44305;DHT22;30019;50.576;8.568;2022-09-09T10:40:58;19.20;99.90
44305;DHT22;30019;50.576;8.568;2022-09-09T10:46:59;19.30;99.90
44305;DHT22;30019;50.576;8.568;2022-09-09T10:55:40;20.70;99.90
44305;DHT22;30019;50.576;8.568;2022-09-09T10:58:18;20.30;99.90
44305;DHT22;30019;50.576;8.568;2022-09-09T11:00:54;20.30;99.90
44305;DHT22;30019;50.576;8.568;2022-09-09T11:03:27;21.30;99.90
44305;DHT22;30019;50.576;8.568;2022-09-09T11:06:02;22.80;99.30
44305;DHT22;30019;50.576;8.568;2022-09-09T11:08:32;24.60;96.60
44305;DHT22;30019;50.576;8.568;2022-09-09T11:11:03;25.80;93.30
44305;DHT22;30019;50.576;8.568;2022-09-09T11:16:46;26.90;90.30
44305;DHT22;30019;50.576;8.568;2022-09-09T11:19:28;25.80;90.10
44305;DHT22;30019;50.576;8.568;2022-09-09T11:21:57;26.30;87.80
44305;DHT22;30019;50.576;8.568;2022-09-09T11:24:44;25.20;84.40
44305;DHT22;30019;50.576;8.568;2022-09-09T11:27:21;23.00;90.60
44305;DHT22;30019;50.576;8.568;2022-09-09T11:35:33;25.20;87.20
44305;DHT22;30019;50.576;8.568;2022-09-09T11:40:37;23.80;85.10
44305;DHT22;30019;50.576;8.568;2022-09-09T11:43:11;22.50;90.00
44305;DHT22;30019;50.576;8.568;2022-09-09T11:45:39;21.60;91.80
44305;DHT22;30019;50.576;8.568;2022-09-09T11:48:23;21.80;93.00
44305;DHT22;30019;50.576;8.568;2022-09-09T11:50:58;21.60;92.50
44305;DHT22;30019;50.576;8.568;2022-09-09T11:53:24;21.40;92.60
44305;DHT22;30019;50.576;8.568;2022-09-09T11:56:08;21.40;93.00
44305;DHT22;30019;50.576;8.568;2022-09-09T11:58:37;21.10;93.90
44305;DHT22;30019;50.576;8.568;2022-09-09T12:07:32;21.00;93.60
44305;DHT22;30019;50.576;8.568;2022-09-09T12:09:44;21.10;94.60
44305;DHT22;30019;50.576;8.568;2022-09-09T12:17:22;21.70;94.60
44305;DHT22;30019;50.576;8.568;2022-09-09T12:19:48;22.00;93.80
44305;DHT22;30019;50.576;8.568;2022-09-09T12:28:21;25.30;85.40
44305;DHT22;30019;50.576;8.568;2022-09-09T12:33:40;24.40;78.20
44305;DHT22;30019;50.576;8.568;2022-09-09T12:36:19;24.80;79.20
44305;DHT22;30019;50.576;8.568;2022-09-09T12:38:46;25.30;78.10
44305;DHT22;30019;50.576;8.568;2022-09-09T12:41:26;25.00;76.90
44305;DHT22;30019;50.576;8.568;2022-09-09T12:44:03;24.70;79.70
44305;DHT22;30019;50.576;8.568;2022-09-09T12:46:42;24.70;79.40
44305;DHT22;30019;50.576;8.568;2022-09-09T12:49:41;23.60;82.00
44305;DHT22;30019;50.576;8.568;2022-09-09T12:55:18;22.40;85.80
44305;DHT22;30019;50.576;8.568;2022-09-09T12:57:44;22.20;87.60
44305;DHT22;30019;50.576;8.568;2022-09-09T13:00:22;22.00;90.00
44305;DHT22;30019;50.576;8.568;2022-09-09T13:02:56;21.80;90.40
44305;DHT22;30019;50.576;8.568;2022-09-09T13:05:37;21.80;90.10
44305;DHT22;30019;50.576;8.568;2022-09-09T13:08:05;21.60;91.50
44305;DHT22;30019;50.576;8.568;2022-09-09T13:10:35;21.30;91.20
44305;DHT22;30019;50.576;8.568;2022-09-09T13:13:04;21.50;91.60
44305;DHT22;30019;50.576;8.568;2022-09-09T13:15:30;21.60;93.00
44305;DHT22;30019;50.576;8.568;2022-09-09T13:17:58;21.30;91.90
44305;DHT22;30019;50.576;8.568;2022-09-09T13:20:26;21.00;93.40
44305;DHT22;30019;50.576;8.568;2022-09-09T13:22:54;21.00;93.30
44305;DHT22;30019;50.576;8.568;2022-09-09T13:25:26;20.80;93.90
44305;DHT22;30019;50.576;8.568;2022-09-09T13:27:54;20.40;94.30
44305;DHT22;30019;50.576;8.568;2022-09-09T13:30:27;20.50;95.20
44305;DHT22;30019;50.576;8.568;2022-09-09T13:36:12;20.10;99.60
44305;DHT22;30019;50.576;8.568;2022-09-09T13:41:22;18.20;99.90
44305;DHT22;30019;50.576;8.568;2022-09-09T13:43:49;17.60;99.90
44305;DHT22;30019;50.576;8.568;2022-09-09T13:46:35;17.10;99.90
44305;DHT22;30019;50.576;8.568;2022-09-09T13:49:18;17.00;99.90
44305;DHT22;30019;50.576;8.568;2022-09-09T13:51:47;17.20;99.90
44305;DHT22;30019;50.576;8.568;2022-09-09T13:54:16;17.60;99.90
44305;DHT22;30019;50.576;8.568;2022-09-09T13:56:42;17.90;99.90
44305;DHT22;30019;50.576;8.568;2022-09-09T13:59:13;18.30;99.90
44305;DHT22;30019;50.576;8.568;2022-09-09T14:01:39;18.90;99.90
44305;DHT22;30019;50.576;8.568;2022-09-09T14:04:04;19.40;99.90
44305;DHT22;30019;50.576;8.568;2022-09-09T14:06:34;19.90;99.90
44305;DHT22;30019;50.576;8.568;2022-09-09T14:09:02;20.40;99.90
44305;DHT22;30019;50.576;8.568;2022-09-09T14:11:28;21.00;99.90
44305;DHT22;30019;50.576;8.568;2022-09-09T14:13:54;21.30;99.90
44305;DHT22;30019;50.576;8.568;2022-09-09T14:16:19;21.30;99.90
44305;DHT22;30019;50.576;8.568;2022-09-09T14:18:47;21.40;99.90
44305;DHT22;30019;50.576;8.568;2022-09-09T14:21:12;21.90;99.90
44305;DHT22;30019;50.576;8.568;2022-09-09T14:23:38;21.50;99.90
44305;DHT22;30019;50.576;8.568;2022-09-09T14:26:05;21.30;99.90
44305;DHT22;30019;50.576;8.568;2022-09-09T14:28:31;21.50;99.90
44305;DHT22;30019;50.576;8.568;2022-09-09T14:31:02;21.30;99.90
44305;DHT22;30019;50.576;8.568;2022-09-09T14:33:29;21.30;99.90
44305;DHT22;30019;50.576;8.568;2022-09-09T14:35:59;21.70;99.90
44305;DHT22;30019;50.576;8.568;2022-09-09T14:38:28;21.60;99.90
44305;DHT22;30019;50.576;8.568;2022-09-09T14:40:54;21.80;99.90
44305;DHT22;30019;50.576;8.568;2022-09-09T14:43:19;21.70;99.90
44305;DHT22;30019;50.576;8.568;2022-09-09T14:45:45;22.20;99.90
44305;DHT22;30019;50.576;8.568;2022-09-09T14:48:14;22.30;99.90
44305;DHT22;30019;50.576;8.568;2022-09-09T14:50:40;22.50;99.90
44305;DHT22;30019;50.576;8.568;2022-09-09T14:53:06;22.50;99.30
44305;DHT22;30019;50.576;8.568;2022-09-09T14:55:34;21.60;98.60
44305;DHT22;30019;50.576;8.568;2022-09-09T14:58:00;21.10;99.90
44305;DHT22;30019;50.576;8.568;2022-09-09T15:00:26;20.50;99.90
44305;DHT22;30019;50.576;8.568;2022-09-09T15:02:53;20.10;99.90
44305;DHT22;30019;50.576;8.568;2022-09-09T15:05:18;19.80;99.90
44305;DHT22;30019;50.576;8.568;2022-09-09T15:07:44;19.40;99.90
44305;DHT22;30019;50.576;8.568;2022-09-09T15:10:10;19.10;99.90
44305;DHT22;30019;50.576;8.568;2022-09-09T15:12:36;19.00;99.90
44305;DHT22;30019;50.576;8.568;2022-09-09T15:15:03;18.90;99.90
44305;DHT22;30019;50.576;8.568;2022-09-09T15:17:28;19.00;99.90
44305;DHT22;30019;50.576;8.568;2022-09-09T15:19:54;18.90;99.90
44305;DHT22;30019;50.576;8.568;2022-09-09T15:22:20;19.00;99.90
44305;DHT22;30019;50.576;8.568;2022-09-09T15:24:46;19.00;99.90
44305;DHT22;30019;50.576;8.568;2022-09-09T15:27:12;19.00;99.90
44305;DHT22;30019;50.576;8.568;2022-09-09T15:29:40;19.10;99.90
44305;DHT22;30019;50.576;8.568;2022-09-09T15:32:06;19.10;99.90
44305;DHT22;30019;50.576;8.568;2022-09-09T15:34:31;19.30;99.90
44305;DHT22;30019;50.576;8.568;2022-09-09T15:36:57;19.40;99.90
44305;DHT22;30019;50.576;8.568;2022-09-09T15:39:24;19.40;99.90
44305;DHT22;30019;50.576;8.568;2022-09-09T15:41:50;19.30;99.90
44305;DHT22;30019;50.576;8.568;2022-09-09T15:44:16;19.20;99.90
44305;DHT22;30019;50.576;8.568;2022-09-09T15:46:53;19.00;99.90
44305;DHT22;30019;50.576;8.568;2022-09-09T15:49:23;18.80;99.90
44305;DHT22;30019;50.576;8.568;2022-09-09T15:51:55;18.70;99.90
44305;DHT22;30019;50.576;8.568;2022-09-09T15:54:22;18.60;99.90
44305;DHT22;30019;50.576;8.568;2022-09-09T15:56:54;18.40;99.90
44305;DHT22;30019;50.576;8.568;2022-09-09T15:59:25;18.40;99.90
44305;DHT22;30019;50.576;8.568;2022-09-09T16:01:50;18.30;99.90
44305;DHT22;30019;50.576;8.568;2022-09-09T16:04:20;18.30;99.90
44305;DHT22;30019;50.576;8.568;2022-09-09T16:06:53;18.30;99.90
44305;DHT22;30019;50.576;8.568;2022-09-09T16:09:19;18.30;99.90
44305;DHT22;30019;50.576;8.568;2022-09-09T16:11:44;18.20;99.90
44305;DHT22;30019;50.576;8.568;2022-09-09T16:14:10;18.10;99.90
44305;DHT22;30019;50.576;8.568;2022-09-09T16:16:36;18.20;99.90
44305;DHT22;30019;50.576;8.568;2022-09-09T16:19:05;18.10;99.90
44305;DHT22;30019;50.576;8.568;2022-09-09T16:21:34;18.10;99.90
44305;DHT22;30019;50.576;8.568;2022-09-09T16:24:02;18.10;99.90
44305;DHT22;30019;50.576;8.568;2022-09-09T16:26:29;18.10;99.90
44305;DHT22;30019;50.576;8.568;2022-09-09T16:28:56;18.00;99.90
44305;DHT22;30019;50.576;8.568;2022-09-09T16:31:23;18.00;99.90
44305;DHT22;30019;50.576;8.568;2022-09-09T16:33:49;17.90;99.90
44305;DHT22;30019;50.576;8.568;2022-09-09T16:36:19;17.60;99.90
44305;DHT22;30019;50.576;8.568;2022-09-09T16:38:45;17.50;99.90
44305;DHT22;30019;50.576;8.568;2022-09-09T16:41:12;17.30;99.90
44305;DHT22;30019;50.576;8.568;2022-09-09T16:43:38;17.10;99.90
44305;DHT22;30019;50.576;8.568;2022-09-09T16:46:16;16.90;99.90
44305;DHT22;30019;50.576;8.568;2022-09-09T16:48:43;16.70;99.90
44305;DHT22;30019;50.576;8.568;2022-09-09T16:51:22;16.60;99.90
44305;DHT22;30019;50.576;8.568;2022-09-09T16:53:49;16.50;99.90
44305;DHT22;30019;50.576;8.568;2022-09-09T16:56:20;16.40;99.90
44305;DHT22;30019;50.576;8.568;2022-09-09T16:58:51;16.40;99.90
44305;DHT22;30019;50.576;8.568;2022-09-09T17:01:17;16.30;99.90
44305;DHT22;30019;50.576;8.568;2022-09-09T17:03:43;16.30;99.90
44305;DHT22;30019;50.576;8.568;2022-09-09T17:06:14;16.40;99.90
44305;DHT22;30019;50.576;8.568;2022-09-09T17:08:41;16.30;99.90
44305;DHT22;30019;50.576;8.568;2022-09-09T17:11:14;16.40;99.90
44305;DHT22;30019;50.576;8.568;2022-09-09T17:13:47;16.40;99.90
44305;DHT22;30019;50.576;8.568;2022-09-09T17:16:14;16.40;99.90
44305;DHT22;30019;50.576;8.568;2022-09-09T17:18:40;16.30;99.90
44305;DHT22;30019;50.576;8.568;2022-09-09T17:21:09;16.30;99.90
44305;DHT22;30019;50.576;8.568;2022-09-09T17:23:36;16.40;99.90
44305;DHT22;30019;50.576;8.568;2022-09-09T17:26:04;16.40;99.90
44305;DHT22;30019;50.576;8.568;2022-09-09T17:28:31;16.40;99.90
44305;DHT22;30019;50.576;8.568;2022-09-09T17:31:01;16.50;99.90
44305;DHT22;30019;50.576;8.568;2022-09-09T17:33:28;16.60;99.90
44305;DHT22;30019;50.576;8.568;2022-09-09T17:36:00;16.60;99.90
44305;DHT22;30019;50.576;8.568;2022-09-09T17:38:27;16.70;99.90
44305;DHT22;30019;50.576;8.568;2022-09-09T17:41:08;16.80;99.90
44305;DHT22;30019;50.576;8.568;2022-09-09T17:43:35;16.90;99.90
44305;DHT22;30019;50.576;8.568;2022-09-09T17:48:32;16.80;99.90
44305;DHT22;30019;50.576;8.568;2022-09-09T17:50:59;16.60;99.90
44305;DHT22;30019;50.576;8.568;2022-09-09T17:53:24;16.60;99.90
44305;DHT22;30019;50.576;8.568;2022-09-09T17:55:50;16.50;99.90
44305;DHT22;30019;50.576;8.568;2022-09-09T17:58:16;16.30;99.90
44305;DHT22;30019;50.576;8.568;2022-09-09T18:00:41;16.30;99.90
44305;DHT22;30019;50.576;8.568;2022-09-09T18:03:07;16.20;99.90
44305;DHT22;30019;50.576;8.568;2022-09-09T18:05:34;16.10;99.90